sensor_id;sensor_type;location;lat;lon;timestamp;P1;durP1;ratioP1;P2;durP2;ratioP2
68319;SDS011;55168;51.120;17.024;2024-01-10T00:00:00;154.8;;;76.5;;
68319;SDS011;55168;51.120;17.024;2024-01-10T00:01:00;154.8;;;76.5;;
68319;SDS011;55168;51.120;17.024;2024-01-10T00:02:00;150.2;;;76.8;;
68319;SDS011;55168;51.120;17.024;2024-01-10T00:03:00;150.2;;;76.8;;
68319;SDS011;55168;51.120;17.024;2024-01-10T00:04:00;150.2;;;76.8;;
68319;SDS011;55168;51.120;17.024;2024-01-10T00:05:00;150.2;;;76.8;;
68319;SDS011;55168;51.120;17.024;2024-01-10T00:06:00;150.2;;;76.8;;
68319;SDS011;55168;51.120;17.024;2024-01-10T00:07:00;148.8;;;75.4;;
68319;SDS011;55168;51.120;17.024;2024-01-10T00:08:00;148.8;;;75.4;;
68319;SDS011;55168;51.120;17.024;2024-01-10T00:09:00;148.8;;;75.4;;
68319;SDS011;55168;51.120;17.024;2024-01-10T00:10:00;148.8;;;75.4;;
68319;SDS011;55168;51.120;17.024;2024-01-10T00:11:00;148.8;;;75.4;;
68319;SDS011;55168;51.120;17.024;2024-01-10T00:12:00;140.1;;;71.5;;
68319;SDS011;55168;51.120;17.024;2024-01-10T00:13:00;140.1;;;71.5;;
68319;SDS011;55168;51.120;17.024;2024-01-10T00:14:00;140.1;;;71.5;;
68319;SDS011;55168;51.120;17.024;2024-01-10T00:15:00;140.1;;;71.5;;
68319;SDS011;55168;51.120;17.024;2024-01-10T00:16:00;140.1;;;71.5;;
68319;SDS011;55168;51.120;17.024;2024-01-10T00:17:00;140.7;;;72.3;;
68319;SDS011;55168;51.120;17.024;2024-01-10T00:18:00;140.7;;;72.3;;
68319;SDS011;55168;51.120;17.024;2024-01-10T00:19:00;140.7;;;72.3;;
68319;SDS011;55168;51.120;17.024;2024-01-10T00:20:00;140.7;;;72.3;;
68319;SDS011;55168;51.120;17.024;2024-01-10T00:21:00;140.7;;;72.3;;
68319;SDS011;55168;51.120;17.024;2024-01-10T00:22:00;141.3;;;72.7;;
68319;SDS011;55168;51.120;17.024;2024-01-10T00:23:00;141.3;;;72.7;;
68319;SDS011;55168;51.120;17.024;2024-01-10T00:24:00;141.3;;;72.7;;
68319;SDS011;55168;51.120;17.024;2024-01-10T00:25:00;141.3;;;72.7;;
68319;SDS011;55168;51.120;17.024;2024-01-10T00:26:00;141.3;;;72.7;;
68319;SDS011;55168;51.120;17.024;2024-01-10T00:27:00;139.5;;;69.7;;
68319;SDS011;55168;51.120;17.024;2024-01-10T00:28:00;139.5;;;69.7;;
68319;SDS011;55168;51.120;17.024;2024-01-10T00:29:00;139.5;;;69.7;;
68319;SDS011;55168;51.120;17.024;2024-01-10T00:30:00;139.5;;;69.7;;
68319;SDS011;55168;51.120;17.024;2024-01-10T00:31:00;139.5;;;69.7;;
68319;SDS011;55168;51.120;17.024;2024-01-10T00:32:00;136.7;;;70.2;;
68319;SDS011;55168;51.120;17.024;2024-01-10T00:33:00;136.7;;;70.2;;
68319;SDS011;55168;51.120;17.024;2024-01-10T00:34:00;136.7;;;70.2;;
68319;SDS011;55168;51.120;17.024;2024-01-10T00:35:00;136.7;;;70.2;;
68319;SDS011;55168;51.120;17.024;2024-01-10T00:36:00;136.7;;;70.2;;
68319;SDS011;55168;51.120;17.024;2024-01-10T00:37:00;142.3;;;70.5;;
68319;SDS011;55168;51.120;17.024;2024-01-10T00:38:00;142.3;;;70.5;;
68319;SDS011;55168;51.120;17.024;2024-01-10T00:39:00;142.3;;;70.5;;
68319;SDS011;55168;51.120;17.024;2024-01-10T00:40:00;142.3;;;70.5;;
68319;SDS011;55168;51.120;17.024;2024-01-10T00:41:00;142.3;;;70.5;;
68319;SDS011;55168;51.120;17.024;2024-01-10T00:42:00;138.1;;;69.7;;
68319;SDS011;55168;51.120;17.024;2024-01-10T00:43:00;138.1;;;69.7;;
68319;SDS011;55168;51.120;17.024;2024-01-10T00:44:00;138.1;;;69.7;;
68319;SDS011;55168;51.120;17.024;2024-01-10T00:45:00;138.1;;;69.7;;
68319;SDS011;55168;51.120;17.024;2024-01-10T00:46:00;138.1;;;69.7;;
68319;SDS011;55168;51.120;17.024;2024-01-10T00:47:00;145.1;;;71.2;;
68319;SDS011;55168;51.120;17.024;2024-01-10T00:48:00;145.1;;;71.2;;
68319;SDS011;55168;51.120;17.024;2024-01-10T00:49:00;145.1;;;71.2;;
68319;SDS011;55168;51.120;17.024;2024-01-10T00:50:00;145.1;;;71.2;;
68319;SDS011;55168;51.120;17.024;2024-01-10T00:51:00;145.1;;;71.2;;
68319;SDS011;55168;51.120;17.024;2024-01-10T00:52:00;144.2;;;72.6;;
68319;SDS011;55168;51.120;17.024;2024-01-10T00:53:00;144.2;;;72.6;;
68319;SDS011;55168;51.120;17.024;2024-01-10T00:54:00;144.2;;;72.6;;
68319;SDS011;55168;51.120;17.024;2024-01-10T00:55:00;144.2;;;72.6;;
68319;SDS011;55168;51.120;17.024;2024-01-10T00:56:00;144.2;;;72.6;;
68319;SDS011;55168;51.120;17.024;2024-01-10T00:57:00;151.3;;;72.8;;
68319;SDS011;55168;51.120;17.024;2024-01-10T00:58:00;151.3;;;72.8;;
68319;SDS011;55168;51.120;17.024;2024-01-10T00:59:00;151.3;;;72.8;;
68319;SDS011;55168;51.120;17.024;2024-01-10T01:00:00;151.3;;;72.8;;
68319;SDS011;55168;51.120;17.024;2024-01-10T01:01:00;151.3;;;72.8;;
68319;SDS011;55168;51.120;17.024;2024-01-10T01:02:00;155.5;;;74.3;;
68319;SDS011;55168;51.120;17.024;2024-01-10T01:03:00;155.5;;;74.3;;
68319;SDS011;55168;51.120;17.024;2024-01-10T01:04:00;155.5;;;74.3;;
68319;SDS011;55168;51.120;17.024;2024-01-10T01:05:00;155.5;;;74.3;;
68319;SDS011;55168;51.120;17.024;2024-01-10T01:06:00;155.5;;;74.3;;
68319;SDS011;55168;51.120;17.024;2024-01-10T01:07:00;152.8;;;74.7;;
68319;SDS011;55168;51.120;17.024;2024-01-10T01:08:00;152.8;;;74.7;;
68319;SDS011;55168;51.120;17.024;2024-01-10T01:09:00;152.8;;;74.7;;
68319;SDS011;55168;51.120;17.024;2024-01-10T01:10:00;152.8;;;74.7;;
68319;SDS011;55168;51.120;17.024;2024-01-10T01:11:00;152.8;;;74.7;;
68319;SDS011;55168;51.120;17.024;2024-01-10T01:12:00;152.5;;;73.3;;
68319;SDS011;55168;51.120;17.024;2024-01-10T01:13:00;152.5;;;73.3;;
68319;SDS011;55168;51.120;17.024;2024-01-10T01:14:00;152.5;;;73.3;;
68319;SDS011;55168;51.120;17.024;2024-01-10T01:15:00;152.5;;;73.3;;
68319;SDS011;55168;51.120;17.024;2024-01-10T01:16:00;152.5;;;73.3;;
68319;SDS011;55168;51.120;17.024;2024-01-10T01:17:00;144.7;;;72.6;;
68319;SDS011;55168;51.120;17.024;2024-01-10T01:18:00;144.7;;;72.6;;
68319;SDS011;55168;51.120;17.024;2024-01-10T01:19:00;144.7;;;72.6;;
68319;SDS011;55168;51.120;17.024;2024-01-10T01:20:00;144.7;;;72.6;;
68319;SDS011;55168;51.120;17.024;2024-01-10T01:21:00;144.7;;;72.6;;
68319;SDS011;55168;51.120;17.024;2024-01-10T01:22:00;148.9;;;73.3;;
68319;SDS011;55168;51.120;17.024;2024-01-10T01:23:00;148.9;;;73.3;;
68319;SDS011;55168;51.120;17.024;2024-01-10T01:24:00;148.9;;;73.3;;
68319;SDS011;55168;51.120;17.024;2024-01-10T01:25:00;148.9;;;73.3;;
68319;SDS011;55168;51.120;17.024;2024-01-10T01:26:00;148.9;;;73.3;;
68319;SDS011;55168;51.120;17.024;2024-01-10T01:27:00;139.5;;;69.9;;
68319;SDS011;55168;51.120;17.024;2024-01-10T01:28:00;139.5;;;69.9;;
68319;SDS011;55168;51.120;17.024;2024-01-10T01:29:00;139.5;;;69.9;;
68319;SDS011;55168;51.120;17.024;2024-01-10T01:30:00;139.5;;;69.9;;
68319;SDS011;55168;51.120;17.024;2024-01-10T01:31:00;139.5;;;69.9;;
68319;SDS011;55168;51.120;17.024;2024-01-10T01:32:00;137.8;;;69.8;;
68319;SDS011;55168;51.120;17.024;2024-01-10T01:33:00;137.8;;;69.8;;
68319;SDS011;55168;51.120;17.024;2024-01-10T01:34:00;137.8;;;69.8;;
68319;SDS011;55168;51.120;17.024;2024-01-10T01:35:00;137.8;;;69.8;;
68319;SDS011;55168;51.120;17.024;2024-01-10T01:36:00;137.8;;;69.8;;
68319;SDS011;55168;51.120;17.024;2024-01-10T01:37:00;137.8;;;70.3;;
68319;SDS011;55168;51.120;17.024;2024-01-10T01:38:00;137.8;;;70.3;;
68319;SDS011;55168;51.120;17.024;2024-01-10T01:39:00;137.8;;;70.3;;
68319;SDS011;55168;51.120;17.024;2024-01-10T01:40:00;137.8;;;70.3;;
68319;SDS011;55168;51.120;17.024;2024-01-10T01:41:00;137.8;;;70.3;;
68319;SDS011;55168;51.120;17.024;2024-01-10T01:42:00;144.1;;;67.0;;
68319;SDS011;55168;51.120;17.024;2024-01-10T01:43:00;144.1;;;67.0;;
68319;SDS011;55168;51.120;17.024;2024-01-10T01:44:00;144.1;;;67.0;;
68319;SDS011;55168;51.120;17.024;2024-01-10T01:45:00;144.1;;;67.0;;
68319;SDS011;55168;51.120;17.024;2024-01-10T01:46:00;144.1;;;67.0;;
68319;SDS011;55168;51.120;17.024;2024-01-10T01:47:01;130.6;;;66.0;;
68319;SDS011;55168;51.120;17.024;2024-01-10T01:48:00;130.6;;;66.0;;
68319;SDS011;55168;51.120;17.024;2024-01-10T01:49:00;130.6;;;66.0;;
68319;SDS011;55168;51.120;17.024;2024-01-10T01:50:00;130.6;;;66.0;;
68319;SDS011;55168;51.120;17.024;2024-01-10T01:51:03;130.6;;;66.0;;
68319;SDS011;55168;51.120;17.024;2024-01-10T01:52:01;128.7;;;64.9;;
68319;SDS011;55168;51.120;17.024;2024-01-10T01:53:00;128.7;;;64.9;;
68319;SDS011;55168;51.120;17.024;2024-01-10T01:54:00;128.7;;;64.9;;
68319;SDS011;55168;51.120;17.024;2024-01-10T01:55:01;128.7;;;64.9;;
68319;SDS011;55168;51.120;17.024;2024-01-10T01:56:03;128.7;;;64.9;;
68319;SDS011;55168;51.120;17.024;2024-01-10T01:57:00;140.0;;;68.6;;
68319;SDS011;55168;51.120;17.024;2024-01-10T01:58:00;140.0;;;68.6;;
68319;SDS011;55168;51.120;17.024;2024-01-10T01:59:01;140.0;;;68.6;;
68319;SDS011;55168;51.120;17.024;2024-01-10T02:00:01;140.0;;;68.6;;
68319;SDS011;55168;51.120;17.024;2024-01-10T02:01:02;140.0;;;68.6;;
68319;SDS011;55168;51.120;17.024;2024-01-10T02:02:01;139.5;;;68.4;;
68319;SDS011;55168;51.120;17.024;2024-01-10T02:03:00;139.5;;;68.4;;
68319;SDS011;55168;51.120;17.024;2024-01-10T02:04:01;139.5;;;68.4;;
68319;SDS011;55168;51.120;17.024;2024-01-10T02:05:00;139.5;;;68.4;;
68319;SDS011;55168;51.120;17.024;2024-01-10T02:06:00;139.5;;;68.4;;
68319;SDS011;55168;51.120;17.024;2024-01-10T02:07:00;136.1;;;69.7;;
68319;SDS011;55168;51.120;17.024;2024-01-10T02:08:00;136.1;;;69.7;;
68319;SDS011;55168;51.120;17.024;2024-01-10T02:09:00;136.1;;;69.7;;
68319;SDS011;55168;51.120;17.024;2024-01-10T02:10:00;136.1;;;69.7;;
68319;SDS011;55168;51.120;17.024;2024-01-10T02:11:01;136.1;;;69.7;;
68319;SDS011;55168;51.120;17.024;2024-01-10T02:12:00;135.8;;;68.3;;
68319;SDS011;55168;51.120;17.024;2024-01-10T02:13:01;135.8;;;68.3;;
68319;SDS011;55168;51.120;17.024;2024-01-10T02:14:00;135.8;;;68.3;;
68319;SDS011;55168;51.120;17.024;2024-01-10T02:15:00;135.8;;;68.3;;
68319;SDS011;55168;51.120;17.024;2024-01-10T02:16:01;135.8;;;68.3;;
68319;SDS011;55168;51.120;17.024;2024-01-10T02:17:00;133.0;;;65.1;;
68319;SDS011;55168;51.120;17.024;2024-01-10T02:18:00;133.0;;;65.1;;
68319;SDS011;55168;51.120;17.024;2024-01-10T02:19:00;133.0;;;65.1;;
68319;SDS011;55168;51.120;17.024;2024-01-10T02:20:16;133.0;;;65.1;;
68319;SDS011;55168;51.120;17.024;2024-01-10T02:21:01;133.0;;;65.1;;
68319;SDS011;55168;51.120;17.024;2024-01-10T02:22:00;136.0;;;65.4;;
68319;SDS011;55168;51.120;17.024;2024-01-10T02:23:00;136.0;;;65.4;;
68319;SDS011;55168;51.120;17.024;2024-01-10T02:24:00;136.0;;;65.4;;
68319;SDS011;55168;51.120;17.024;2024-01-10T02:25:00;136.0;;;65.4;;
68319;SDS011;55168;51.120;17.024;2024-01-10T02:26:00;136.0;;;65.4;;
68319;SDS011;55168;51.120;17.024;2024-01-10T02:27:00;131.4;;;67.3;;
68319;SDS011;55168;51.120;17.024;2024-01-10T02:28:00;131.4;;;67.3;;
68319;SDS011;55168;51.120;17.024;2024-01-10T02:29:00;131.4;;;67.3;;
68319;SDS011;55168;51.120;17.024;2024-01-10T02:30:02;131.4;;;67.3;;
68319;SDS011;55168;51.120;17.024;2024-01-10T02:31:01;131.4;;;67.3;;
68319;SDS011;55168;51.120;17.024;2024-01-10T02:32:00;123.2;;;63.0;;
68319;SDS011;55168;51.120;17.024;2024-01-10T02:33:00;123.2;;;63.0;;
68319;SDS011;55168;51.120;17.024;2024-01-10T02:34:00;123.2;;;63.0;;
68319;SDS011;55168;51.120;17.024;2024-01-10T02:35:00;123.2;;;63.0;;
68319;SDS011;55168;51.120;17.024;2024-01-10T02:36:00;123.2;;;63.0;;
68319;SDS011;55168;51.120;17.024;2024-01-10T02:37:00;132.8;;;65.8;;
68319;SDS011;55168;51.120;17.024;2024-01-10T02:38:01;132.8;;;65.8;;
68319;SDS011;55168;51.120;17.024;2024-01-10T02:39:00;132.8;;;65.8;;
68319;SDS011;55168;51.120;17.024;2024-01-10T02:40:00;132.8;;;65.8;;
68319;SDS011;55168;51.120;17.024;2024-01-10T02:41:00;132.8;;;65.8;;
68319;SDS011;55168;51.120;17.024;2024-01-10T02:42:00;133.2;;;68.6;;
68319;SDS011;55168;51.120;17.024;2024-01-10T02:43:00;133.2;;;68.6;;
68319;SDS011;55168;51.120;17.024;2024-01-10T02:44:00;133.2;;;68.6;;
68319;SDS011;55168;51.120;17.024;2024-01-10T02:45:00;133.2;;;68.6;;
68319;SDS011;55168;51.120;17.024;2024-01-10T02:46:00;133.2;;;68.6;;
68319;SDS011;55168;51.120;17.024;2024-01-10T02:47:00;145.6;;;70.4;;
68319;SDS011;55168;51.120;17.024;2024-01-10T02:48:00;145.6;;;70.4;;
68319;SDS011;55168;51.120;17.024;2024-01-10T02:49:00;145.6;;;70.4;;
68319;SDS011;55168;51.120;17.024;2024-01-10T02:50:00;145.6;;;70.4;;
68319;SDS011;55168;51.120;17.024;2024-01-10T02:51:00;141.0;;;71.7;;
68319;SDS011;55168;51.120;17.024;2024-01-10T02:52:00;141.0;;;71.7;;
68319;SDS011;55168;51.120;17.024;2024-01-10T02:53:00;141.0;;;71.7;;
68319;SDS011;55168;51.120;17.024;2024-01-10T02:54:00;141.0;;;71.7;;
68319;SDS011;55168;51.120;17.024;2024-01-10T02:55:00;141.0;;;71.7;;
68319;SDS011;55168;51.120;17.024;2024-01-10T02:56:00;143.4;;;72.5;;
68319;SDS011;55168;51.120;17.024;2024-01-10T02:57:00;143.4;;;72.5;;
68319;SDS011;55168;51.120;17.024;2024-01-10T02:58:00;143.4;;;72.5;;
68319;SDS011;55168;51.120;17.024;2024-01-10T02:59:00;143.4;;;72.5;;
68319;SDS011;55168;51.120;17.024;2024-01-10T03:00:00;143.4;;;72.5;;
68319;SDS011;55168;51.120;17.024;2024-01-10T03:01:00;135.3;;;65.7;;
68319;SDS011;55168;51.120;17.024;2024-01-10T03:02:00;135.3;;;65.7;;
68319;SDS011;55168;51.120;17.024;2024-01-10T03:03:00;135.3;;;65.7;;
68319;SDS011;55168;51.120;17.024;2024-01-10T03:04:00;135.3;;;65.7;;
68319;SDS011;55168;51.120;17.024;2024-01-10T03:05:00;135.3;;;65.7;;
68319;SDS011;55168;51.120;17.024;2024-01-10T03:06:00;131.3;;;65.4;;
68319;SDS011;55168;51.120;17.024;2024-01-10T03:07:00;131.3;;;65.4;;
68319;SDS011;55168;51.120;17.024;2024-01-10T03:08:00;131.3;;;65.4;;
68319;SDS011;55168;51.120;17.024;2024-01-10T03:09:00;131.3;;;65.4;;
68319;SDS011;55168;51.120;17.024;2024-01-10T03:10:00;131.3;;;65.4;;
68319;SDS011;55168;51.120;17.024;2024-01-10T03:11:00;134.9;;;66.4;;
68319;SDS011;55168;51.120;17.024;2024-01-10T03:12:00;134.9;;;66.4;;
68319;SDS011;55168;51.120;17.024;2024-01-10T03:13:00;134.9;;;66.4;;
68319;SDS011;55168;51.120;17.024;2024-01-10T03:14:02;134.9;;;66.4;;
68319;SDS011;55168;51.120;17.024;2024-01-10T03:15:00;134.9;;;66.4;;
68319;SDS011;55168;51.120;17.024;2024-01-10T03:16:00;132.6;;;65.3;;
68319;SDS011;55168;51.120;17.024;2024-01-10T03:17:00;132.6;;;65.3;;
68319;SDS011;55168;51.120;17.024;2024-01-10T03:18:00;132.6;;;65.3;;
68319;SDS011;55168;51.120;17.024;2024-01-10T03:19:00;132.6;;;65.3;;
68319;SDS011;55168;51.120;17.024;2024-01-10T03:20:00;132.6;;;65.3;;
68319;SDS011;55168;51.120;17.024;2024-01-10T03:21:00;137.6;;;67.6;;
68319;SDS011;55168;51.120;17.024;2024-01-10T03:22:00;137.6;;;67.6;;
68319;SDS011;55168;51.120;17.024;2024-01-10T03:23:00;137.6;;;67.6;;
68319;SDS011;55168;51.120;17.024;2024-01-10T03:24:01;137.6;;;67.6;;
68319;SDS011;55168;51.120;17.024;2024-01-10T03:25:00;137.6;;;67.6;;
68319;SDS011;55168;51.120;17.024;2024-01-10T03:26:00;129.7;;;64.7;;
68319;SDS011;55168;51.120;17.024;2024-01-10T03:27:01;129.7;;;64.7;;
68319;SDS011;55168;51.120;17.024;2024-01-10T03:28:00;129.7;;;64.7;;
68319;SDS011;55168;51.120;17.024;2024-01-10T03:29:00;129.7;;;64.7;;
68319;SDS011;55168;51.120;17.024;2024-01-10T03:30:00;129.7;;;64.7;;
68319;SDS011;55168;51.120;17.024;2024-01-10T03:31:00;129.8;;;63.8;;
68319;SDS011;55168;51.120;17.024;2024-01-10T03:32:00;129.8;;;63.8;;
68319;SDS011;55168;51.120;17.024;2024-01-10T03:33:00;129.8;;;63.8;;
68319;SDS011;55168;51.120;17.024;2024-01-10T03:34:00;129.8;;;63.8;;
68319;SDS011;55168;51.120;17.024;2024-01-10T03:35:00;129.8;;;63.8;;
68319;SDS011;55168;51.120;17.024;2024-01-10T03:36:00;119.4;;;54.0;;
68319;SDS011;55168;51.120;17.024;2024-01-10T03:37:00;119.4;;;54.0;;
68319;SDS011;55168;51.120;17.024;2024-01-10T03:38:00;119.4;;;54.0;;
68319;SDS011;55168;51.120;17.024;2024-01-10T03:39:00;119.4;;;54.0;;
68319;SDS011;55168;51.120;17.024;2024-01-10T03:40:00;119.4;;;54.0;;
68319;SDS011;55168;51.120;17.024;2024-01-10T03:41:00;131.9;;;65.6;;
68319;SDS011;55168;51.120;17.024;2024-01-10T03:42:00;131.9;;;65.6;;
68319;SDS011;55168;51.120;17.024;2024-01-10T03:43:00;131.9;;;65.6;;
68319;SDS011;55168;51.120;17.024;2024-01-10T03:44:00;131.9;;;65.6;;
68319;SDS011;55168;51.120;17.024;2024-01-10T03:45:00;131.9;;;65.6;;
68319;SDS011;55168;51.120;17.024;2024-01-10T03:46:00;132.8;;;65.6;;
68319;SDS011;55168;51.120;17.024;2024-01-10T03:47:00;132.8;;;65.6;;
68319;SDS011;55168;51.120;17.024;2024-01-10T03:48:00;132.8;;;65.6;;
68319;SDS011;55168;51.120;17.024;2024-01-10T03:49:00;132.8;;;65.6;;
68319;SDS011;55168;51.120;17.024;2024-01-10T03:50:00;132.8;;;65.6;;
68319;SDS011;55168;51.120;17.024;2024-01-10T03:51:00;133.1;;;64.3;;
68319;SDS011;55168;51.120;17.024;2024-01-10T03:52:00;133.1;;;64.3;;
68319;SDS011;55168;51.120;17.024;2024-01-10T03:53:00;133.1;;;64.3;;
68319;SDS011;55168;51.120;17.024;2024-01-10T03:54:00;133.1;;;64.3;;
68319;SDS011;55168;51.120;17.024;2024-01-10T03:55:00;133.1;;;64.3;;
68319;SDS011;55168;51.120;17.024;2024-01-10T03:56:04;127.8;;;64.5;;
68319;SDS011;55168;51.120;17.024;2024-01-10T03:57:00;127.8;;;64.5;;
68319;SDS011;55168;51.120;17.024;2024-01-10T03:58:00;127.8;;;64.5;;
68319;SDS011;55168;51.120;17.024;2024-01-10T03:59:00;127.8;;;64.5;;
68319;SDS011;55168;51.120;17.024;2024-01-10T04:00:00;127.8;;;64.5;;
68319;SDS011;55168;51.120;17.024;2024-01-10T04:01:03;142.7;;;69.3;;
68319;SDS011;55168;51.120;17.024;2024-01-10T04:02:00;142.7;;;69.3;;
68319;SDS011;55168;51.120;17.024;2024-01-10T04:03:00;142.7;;;69.3;;
68319;SDS011;55168;51.120;17.024;2024-01-10T04:04:00;142.7;;;69.3;;
68319;SDS011;55168;51.120;17.024;2024-01-10T04:05:00;142.7;;;69.3;;
68319;SDS011;55168;51.120;17.024;2024-01-10T04:06:01;138.1;;;67.5;;
68319;SDS011;55168;51.120;17.024;2024-01-10T04:07:00;138.1;;;67.5;;
68319;SDS011;55168;51.120;17.024;2024-01-10T04:08:00;138.1;;;67.5;;
68319;SDS011;55168;51.120;17.024;2024-01-10T04:09:01;138.1;;;67.5;;
68319;SDS011;55168;51.120;17.024;2024-01-10T04:10:00;138.1;;;67.5;;
68319;SDS011;55168;51.120;17.024;2024-01-10T04:11:00;138.0;;;66.4;;
68319;SDS011;55168;51.120;17.024;2024-01-10T04:12:00;138.0;;;66.4;;
68319;SDS011;55168;51.120;17.024;2024-01-10T04:13:00;138.0;;;66.4;;
68319;SDS011;55168;51.120;17.024;2024-01-10T04:14:00;138.0;;;66.4;;
68319;SDS011;55168;51.120;17.024;2024-01-10T04:15:00;138.0;;;66.4;;
68319;SDS011;55168;51.120;17.024;2024-01-10T04:16:00;132.3;;;67.5;;
68319;SDS011;55168;51.120;17.024;2024-01-10T04:17:00;132.3;;;67.5;;
68319;SDS011;55168;51.120;17.024;2024-01-10T04:18:00;132.3;;;67.5;;
68319;SDS011;55168;51.120;17.024;2024-01-10T04:19:00;132.3;;;67.5;;
68319;SDS011;55168;51.120;17.024;2024-01-10T04:20:00;132.3;;;67.5;;
68319;SDS011;55168;51.120;17.024;2024-01-10T04:21:00;138.7;;;70.5;;
68319;SDS011;55168;51.120;17.024;2024-01-10T04:22:00;138.7;;;70.5;;
68319;SDS011;55168;51.120;17.024;2024-01-10T04:23:00;138.7;;;70.5;;
68319;SDS011;55168;51.120;17.024;2024-01-10T04:24:00;138.7;;;70.5;;
68319;SDS011;55168;51.120;17.024;2024-01-10T04:25:01;138.7;;;70.5;;
68319;SDS011;55168;51.120;17.024;2024-01-10T04:26:01;133.3;;;68.9;;
68319;SDS011;55168;51.120;17.024;2024-01-10T04:27:00;133.3;;;68.9;;
68319;SDS011;55168;51.120;17.024;2024-01-10T04:28:00;133.3;;;68.9;;
68319;SDS011;55168;51.120;17.024;2024-01-10T04:29:00;133.3;;;68.9;;
68319;SDS011;55168;51.120;17.024;2024-01-10T04:30:00;133.3;;;68.9;;
68319;SDS011;55168;51.120;17.024;2024-01-10T04:31:00;141.4;;;69.5;;
68319;SDS011;55168;51.120;17.024;2024-01-10T04:32:00;141.4;;;69.5;;
68319;SDS011;55168;51.120;17.024;2024-01-10T04:33:00;141.4;;;69.5;;
68319;SDS011;55168;51.120;17.024;2024-01-10T04:34:00;141.4;;;69.5;;
68319;SDS011;55168;51.120;17.024;2024-01-10T04:35:00;141.4;;;69.5;;
68319;SDS011;55168;51.120;17.024;2024-01-10T04:36:00;145.3;;;70.3;;
68319;SDS011;55168;51.120;17.024;2024-01-10T04:37:00;145.3;;;70.3;;
68319;SDS011;55168;51.120;17.024;2024-01-10T04:38:00;145.3;;;70.3;;
68319;SDS011;55168;51.120;17.024;2024-01-10T04:39:00;145.3;;;70.3;;
68319;SDS011;55168;51.120;17.024;2024-01-10T04:40:00;145.3;;;70.3;;
68319;SDS011;55168;51.120;17.024;2024-01-10T04:41:00;142.9;;;68.7;;
68319;SDS011;55168;51.120;17.024;2024-01-10T04:42:02;142.9;;;68.7;;
68319;SDS011;55168;51.120;17.024;2024-01-10T04:43:00;142.9;;;68.7;;
68319;SDS011;55168;51.120;17.024;2024-01-10T04:44:00;142.9;;;68.7;;
68319;SDS011;55168;51.120;17.024;2024-01-10T04:45:00;142.9;;;68.7;;
68319;SDS011;55168;51.120;17.024;2024-01-10T04:46:00;147.4;;;71.0;;
68319;SDS011;55168;51.120;17.024;2024-01-10T04:47:00;147.4;;;71.0;;
68319;SDS011;55168;51.120;17.024;2024-01-10T04:48:00;147.4;;;71.0;;
68319;SDS011;55168;51.120;17.024;2024-01-10T04:49:00;147.4;;;71.0;;
68319;SDS011;55168;51.120;17.024;2024-01-10T04:50:00;147.4;;;71.0;;
68319;SDS011;55168;51.120;17.024;2024-01-10T04:51:00;149.9;;;71.7;;
68319;SDS011;55168;51.120;17.024;2024-01-10T04:52:01;149.9;;;71.7;;
68319;SDS011;55168;51.120;17.024;2024-01-10T04:53:00;149.9;;;71.7;;
68319;SDS011;55168;51.120;17.024;2024-01-10T04:54:00;149.9;;;71.7;;
68319;SDS011;55168;51.120;17.024;2024-01-10T04:55:00;149.9;;;71.7;;
68319;SDS011;55168;51.120;17.024;2024-01-10T04:56:00;150.7;;;73.2;;
68319;SDS011;55168;51.120;17.024;2024-01-10T04:57:00;150.7;;;73.2;;
68319;SDS011;55168;51.120;17.024;2024-01-10T04:58:00;150.7;;;73.2;;
68319;SDS011;55168;51.120;17.024;2024-01-10T04:59:00;150.7;;;73.2;;
68319;SDS011;55168;51.120;17.024;2024-01-10T05:00:01;150.7;;;73.2;;
68319;SDS011;55168;51.120;17.024;2024-01-10T05:01:00;144.8;;;70.2;;
68319;SDS011;55168;51.120;17.024;2024-01-10T05:02:00;144.8;;;70.2;;
68319;SDS011;55168;51.120;17.024;2024-01-10T05:03:00;144.8;;;70.2;;
68319;SDS011;55168;51.120;17.024;2024-01-10T05:04:00;144.8;;;70.2;;
68319;SDS011;55168;51.120;17.024;2024-01-10T05:05:00;144.8;;;70.2;;
68319;SDS011;55168;51.120;17.024;2024-01-10T05:06:00;146.6;;;71.4;;
68319;SDS011;55168;51.120;17.024;2024-01-10T05:07:00;146.6;;;71.4;;
68319;SDS011;55168;51.120;17.024;2024-01-10T05:08:00;146.6;;;71.4;;
68319;SDS011;55168;51.120;17.024;2024-01-10T05:09:00;146.6;;;71.4;;
68319;SDS011;55168;51.120;17.024;2024-01-10T05:10:00;146.6;;;71.4;;
68319;SDS011;55168;51.120;17.024;2024-01-10T05:11:00;148.1;;;70.0;;
68319;SDS011;55168;51.120;17.024;2024-01-10T05:12:00;148.1;;;70.0;;
68319;SDS011;55168;51.120;17.024;2024-01-10T05:13:00;148.1;;;70.0;;
68319;SDS011;55168;51.120;17.024;2024-01-10T05:14:00;148.1;;;70.0;;
68319;SDS011;55168;51.120;17.024;2024-01-10T05:15:00;148.1;;;70.0;;
68319;SDS011;55168;51.120;17.024;2024-01-10T05:16:00;149.4;;;71.6;;
68319;SDS011;55168;51.120;17.024;2024-01-10T05:17:00;149.4;;;71.6;;
68319;SDS011;55168;51.120;17.024;2024-01-10T05:18:00;149.4;;;71.6;;
68319;SDS011;55168;51.120;17.024;2024-01-10T05:19:01;149.4;;;71.6;;
68319;SDS011;55168;51.120;17.024;2024-01-10T05:20:00;149.4;;;71.6;;
68319;SDS011;55168;51.120;17.024;2024-01-10T05:21:00;151.8;;;73.7;;
68319;SDS011;55168;51.120;17.024;2024-01-10T05:22:00;151.8;;;73.7;;
68319;SDS011;55168;51.120;17.024;2024-01-10T05:23:00;151.8;;;73.7;;
68319;SDS011;55168;51.120;17.024;2024-01-10T05:24:00;151.8;;;73.7;;
68319;SDS011;55168;51.120;17.024;2024-01-10T05:25:00;151.8;;;73.7;;
68319;SDS011;55168;51.120;17.024;2024-01-10T05:26:00;151.1;;;73.1;;
68319;SDS011;55168;51.120;17.024;2024-01-10T05:27:00;151.1;;;73.1;;
68319;SDS011;55168;51.120;17.024;2024-01-10T05:28:00;151.1;;;73.1;;
68319;SDS011;55168;51.120;17.024;2024-01-10T05:29:00;151.1;;;73.1;;
68319;SDS011;55168;51.120;17.024;2024-01-10T05:30:00;151.1;;;73.1;;
68319;SDS011;55168;51.120;17.024;2024-01-10T05:31:00;154.1;;;73.1;;
68319;SDS011;55168;51.120;17.024;2024-01-10T05:32:00;154.1;;;73.1;;
68319;SDS011;55168;51.120;17.024;2024-01-10T05:33:00;154.1;;;73.1;;
68319;SDS011;55168;51.120;17.024;2024-01-10T05:34:00;154.1;;;73.1;;
68319;SDS011;55168;51.120;17.024;2024-01-10T05:35:00;154.1;;;73.1;;
68319;SDS011;55168;51.120;17.024;2024-01-10T05:36:00;146.7;;;69.6;;
68319;SDS011;55168;51.120;17.024;2024-01-10T05:37:00;146.7;;;69.6;;
68319;SDS011;55168;51.120;17.024;2024-01-10T05:38:00;146.7;;;69.6;;
68319;SDS011;55168;51.120;17.024;2024-01-10T05:39:00;146.7;;;69.6;;
68319;SDS011;55168;51.120;17.024;2024-01-10T05:40:00;146.7;;;69.6;;
68319;SDS011;55168;51.120;17.024;2024-01-10T05:41:00;136.5;;;66.8;;
68319;SDS011;55168;51.120;17.024;2024-01-10T05:42:00;136.5;;;66.8;;
68319;SDS011;55168;51.120;17.024;2024-01-10T05:43:00;136.5;;;66.8;;
68319;SDS011;55168;51.120;17.024;2024-01-10T05:44:00;136.5;;;66.8;;
68319;SDS011;55168;51.120;17.024;2024-01-10T05:45:00;136.5;;;66.8;;
68319;SDS011;55168;51.120;17.024;2024-01-10T05:46:00;149.8;;;73.0;;
68319;SDS011;55168;51.120;17.024;2024-01-10T05:47:00;149.8;;;73.0;;
68319;SDS011;55168;51.120;17.024;2024-01-10T05:48:00;149.8;;;73.0;;
68319;SDS011;55168;51.120;17.024;2024-01-10T05:49:00;149.8;;;73.0;;
68319;SDS011;55168;51.120;17.024;2024-01-10T05:50:01;149.8;;;73.0;;